sensor_id;sensor_type;location;lat;lon;timestamp;pressure;altitude;pressure_sealevel;temperature;humidity
75549;BME280;64133;56.002;37.208;2024-03-07T00:01:05;99913.83;;;-5.51;44.84
75549;BME280;64133;56.002;37.208;2024-03-07T00:06:08;99909.13;;;-5.53;44.86
75549;BME280;64133;56.002;37.208;2024-03-07T00:11:13;99900.55;;;-5.47;44.94
75549;BME280;64133;56.002;37.208;2024-03-07T00:16:18;99893.67;;;-5.45;44.80
75549;BME280;64133;56.002;37.208;2024-03-07T00:21:23;99903.59;;;-5.52;44.91
75549;BME280;64133;56.002;37.208;2024-03-07T00:26:28;99901.47;;;-5.56;45.10
75549;BME280;64133;56.002;37.208;2024-03-07T00:31:33;99902.47;;;-5.74;45.39
75549;BME280;64133;56.002;37.208;2024-03-07T00:36:38;99892.48;;;-5.58;45.45
75549;BME280;64133;56.002;37.208;2024-03-07T00:41:42;99886.95;;;-5.57;44.96
75549;BME280;64133;56.002;37.208;2024-03-07T00:46:46;99883.06;;;-5.52;44.86
75549;BME280;64133;56.002;37.208;2024-03-07T00:51:52;99875.77;;;-5.51;45.01
75549;BME280;64133;56.002;37.208;2024-03-07T00:56:55;99879.19;;;-5.51;45.25
75549;BME280;64133;56.002;37.208;2024-03-07T01:02:00;99866.48;;;-5.68;45.33
75549;BME280;64133;56.002;37.208;2024-03-07T01:07:05;99871.75;;;-5.85;46.16
75549;BME280;64133;56.002;37.208;2024-03-07T01:12:09;99868.62;;;-5.66;45.81
75549;BME280;64133;56.002;37.208;2024-03-07T01:17:13;99867.42;;;-5.79;46.12
75549;BME280;64133;56.002;37.208;2024-03-07T01:22:17;99856.44;;;-5.92;46.45
75549;BME280;64133;56.002;37.208;2024-03-07T01:27:22;99851.55;;;-5.71;46.08
75549;BME280;64133;56.002;37.208;2024-03-07T01:32:28;99846.20;;;-5.94;46.20
75549;BME280;64133;56.002;37.208;2024-03-07T01:37:33;99843.13;;;-5.89;46.52
75549;BME280;64133;56.002;37.208;2024-03-07T01:42:38;99838.82;;;-5.82;46.66
75549;BME280;64133;56.002;37.208;2024-03-07T01:47:43;99837.69;;;-5.96;47.00
75549;BME280;64133;56.002;37.208;2024-03-07T01:52:48;99833.52;;;-6.12;47.26
75549;BME280;64133;56.002;37.208;2024-03-07T01:57:53;99828.39;;;-6.12;47.82
75549;BME280;64133;56.002;37.208;2024-03-07T02:02:58;99834.45;;;-6.27;47.91
75549;BME280;64133;56.002;37.208;2024-03-07T02:08:03;99832.00;;;-6.42;48.56
75549;BME280;64133;56.002;37.208;2024-03-07T02:13:06;99833.91;;;-6.82;48.81
75549;BME280;64133;56.002;37.208;2024-03-07T02:18:11;99834.24;;;-6.66;49.12
75549;BME280;64133;56.002;37.208;2024-03-07T02:23:16;99833.00;;;-6.75;49.22
75549;BME280;64133;56.002;37.208;2024-03-07T02:28:21;99828.34;;;-6.77;49.07
75549;BME280;64133;56.002;37.208;2024-03-07T02:33:26;99828.64;;;-6.55;49.09
75549;BME280;64133;56.002;37.208;2024-03-07T02:38:31;99818.69;;;-6.33;49.07
75549;BME280;64133;56.002;37.208;2024-03-07T02:43:36;99826.13;;;-6.61;48.64
75549;BME280;64133;56.002;37.208;2024-03-07T02:48:41;99821.47;;;-6.72;49.08
75549;BME280;64133;56.002;37.208;2024-03-07T02:53:46;99824.84;;;-6.61;49.66
75549;BME280;64133;56.002;37.208;2024-03-07T02:58:51;99826.52;;;-6.59;48.95
75549;BME280;64133;56.002;37.208;2024-03-07T03:03:56;99818.87;;;-6.62;49.53
75549;BME280;64133;56.002;37.208;2024-03-07T03:09:01;99816.78;;;-6.70;49.31
75549;BME280;64133;56.002;37.208;2024-03-07T03:14:06;99816.71;;;-6.59;49.11
75549;BME280;64133;56.002;37.208;2024-03-07T03:19:11;99800.92;;;-6.60;49.63
75549;BME280;64133;56.002;37.208;2024-03-07T03:24:16;99798.22;;;-6.37;49.13
75549;BME280;64133;56.002;37.208;2024-03-07T03:29:21;99799.59;;;-6.54;49.12
75549;BME280;64133;56.002;37.208;2024-03-07T03:34:26;99802.63;;;-6.59;49.35
75549;BME280;64133;56.002;37.208;2024-03-07T03:39:34;99800.59;;;-6.81;49.91
75549;BME280;64133;56.002;37.208;2024-03-07T03:44:36;99800.55;;;-6.72;49.66
75549;BME280;64133;56.002;37.208;2024-03-07T03:49:41;99803.61;;;-6.83;49.72
75549;BME280;64133;56.002;37.208;2024-03-07T03:54:46;99789.48;;;-6.74;49.21
75549;BME280;64133;56.002;37.208;2024-03-07T03:59:51;99787.66;;;-6.58;49.44
75549;BME280;64133;56.002;37.208;2024-03-07T04:04:56;99785.67;;;-6.81;49.42
75549;BME280;64133;56.002;37.208;2024-03-07T04:10:01;99783.43;;;-6.61;49.03
75549;BME280;64133;56.002;37.208;2024-03-07T04:15:08;99783.08;;;-6.74;49.07
75549;BME280;64133;56.002;37.208;2024-03-07T04:20:13;99782.47;;;-6.46;48.74
75549;BME280;64133;56.002;37.208;2024-03-07T04:25:16;99783.47;;;-6.71;49.21
75549;BME280;64133;56.002;37.208;2024-03-07T04:30:21;99778.83;;;-6.78;49.12
75549;BME280;64133;56.002;37.208;2024-03-07T04:35:26;99779.29;;;-6.86;49.05
75549;BME280;64133;56.002;37.208;2024-03-07T04:40:31;99781.34;;;-6.69;48.80
75549;BME280;64133;56.002;37.208;2024-03-07T04:45:37;99768.92;;;-6.62;48.59
75549;BME280;64133;56.002;37.208;2024-03-07T04:50:42;99772.28;;;-6.55;48.16
75549;BME280;64133;56.002;37.208;2024-03-07T04:55:47;99772.28;;;-6.55;48.17
75549;BME280;64133;56.002;37.208;2024-03-07T05:00:52;99771.38;;;-6.46;47.93
75549;BME280;64133;56.002;37.208;2024-03-07T05:05:56;99775.03;;;-6.20;47.58
75549;BME280;64133;56.002;37.208;2024-03-07T05:11:01;99775.86;;;-6.18;46.94
75549;BME280;64133;56.002;37.208;2024-03-07T05:16:07;99772.77;;;-6.05;46.71
75549;BME280;64133;56.002;37.208;2024-03-07T05:21:12;99770.61;;;-6.00;46.61
75549;BME280;64133;56.002;37.208;2024-03-07T05:26:34;99759.05;;;-5.58;46.16
75549;BME280;64133;56.002;37.208;2024-03-07T05:31:39;99753.55;;;-5.22;46.01
75549;BME280;64133;56.002;37.208;2024-03-07T05:36:44;99753.35;;;-5.07;45.42
75549;BME280;64133;56.002;37.208;2024-03-07T05:41:49;99746.47;;;-4.72;45.03
75549;BME280;64133;56.002;37.208;2024-03-07T05:46:54;99740.55;;;-4.47;44.66
75549;BME280;64133;56.002;37.208;2024-03-07T05:51:59;99736.08;;;-4.36;44.48
75549;BME280;64133;56.002;37.208;2024-03-07T05:57:04;99736.10;;;-4.10;44.25
75549;BME280;64133;56.002;37.208;2024-03-07T06:02:10;99731.80;;;-3.83;44.10
75549;BME280;64133;56.002;37.208;2024-03-07T06:07:15;99728.66;;;-3.09;43.78
75549;BME280;64133;56.002;37.208;2024-03-07T06:12:19;99727.53;;;-2.95;43.23
75549;BME280;64133;56.002;37.208;2024-03-07T06:17:24;99730.91;;;-2.93;43.60
75549;BME280;64133;56.002;37.208;2024-03-07T06:22:32;99732.44;;;-2.85;43.10
75549;BME280;64133;56.002;37.208;2024-03-07T06:27:34;99727.91;;;-2.18;42.70
75549;BME280;64133;56.002;37.208;2024-03-07T06:32:39;99719.94;;;-2.09;42.61
75549;BME280;64133;56.002;37.208;2024-03-07T06:37:44;99717.88;;;-1.62;41.92
75549;BME280;64133;56.002;37.208;2024-03-07T06:42:49;99716.96;;;-1.43;41.63
75549;BME280;64133;56.002;37.208;2024-03-07T06:48:10;99717.44;;;-0.99;41.21
75549;BME280;64133;56.002;37.208;2024-03-07T06:53:15;99710.86;;;-0.96;40.86
75549;BME280;64133;56.002;37.208;2024-03-07T06:58:20;99713.55;;;-0.85;40.85
75549;BME280;64133;56.002;37.208;2024-03-07T07:03:26;99701.01;;;-0.69;41.11
75549;BME280;64133;56.002;37.208;2024-03-07T07:08:30;99699.20;;;0.01;40.63
75549;BME280;64133;56.002;37.208;2024-03-07T07:13:35;99692.14;;;-0.62;40.14
75549;BME280;64133;56.002;37.208;2024-03-07T07:18:41;99698.98;;;0.07;39.87
75549;BME280;64133;56.002;37.208;2024-03-07T07:23:46;99694.58;;;-0.29;40.38
75549;BME280;64133;56.002;37.208;2024-03-07T07:28:51;99691.07;;;-0.02;39.80
75549;BME280;64133;56.002;37.208;2024-03-07T07:33:56;99696.39;;;0.07;39.77
75549;BME280;64133;56.002;37.208;2024-03-07T07:39:00;99687.91;;;0.52;39.41
75549;BME280;64133;56.002;37.208;2024-03-07T07:44:06;99675.94;;;0.96;38.99
75549;BME280;64133;56.002;37.208;2024-03-07T07:49:11;99670.08;;;0.80;39.49
75549;BME280;64133;56.002;37.208;2024-03-07T07:54:16;99661.89;;;0.90;38.67
75549;BME280;64133;56.002;37.208;2024-03-07T07:59:21;99658.34;;;0.93;38.96
75549;BME280;64133;56.002;37.208;2024-03-07T08:04:26;99657.67;;;0.76;39.25
75549;BME280;64133;56.002;37.208;2024-03-07T08:09:31;99644.64;;;1.01;39.44
75549;BME280;64133;56.002;37.208;2024-03-07T08:14:36;99644.73;;;1.64;38.91
75549;BME280;64133;56.002;37.208;2024-03-07T08:19:41;99634.63;;;2.48;38.26
75549;BME280;64133;56.002;37.208;2024-03-07T08:24:46;99634.83;;;2.14;38.33
75549;BME280;64133;56.002;37.208;2024-03-07T08:29:51;99633.67;;;3.07;37.56
75549;BME280;64133;56.002;37.208;2024-03-07T08:34:56;99624.59;;;2.30;37.77
75549;BME280;64133;56.002;37.208;2024-03-07T08:40:04;99621.79;;;2.45;37.57
75549;BME280;64133;56.002;37.208;2024-03-07T08:45:10;99621.72;;;3.03;37.48
75549;BME280;64133;56.002;37.208;2024-03-07T08:50:15;99620.38;;;3.22;36.82
75549;BME280;64133;56.002;37.208;2024-03-07T08:55:23;99614.92;;;3.37;37.28
75549;BME280;64133;56.002;37.208;2024-03-07T09:00:25;99615.88;;;3.70;37.33
75549;BME280;64133;56.002;37.208;2024-03-07T09:05:30;99608.33;;;3.38;36.36
75549;BME280;64133;56.002;37.208;2024-03-07T09:10:36;99608.24;;;3.22;37.13
75549;BME280;64133;56.002;37.208;2024-03-07T09:15:41;99603.26;;;3.18;36.76
75549;BME280;64133;56.002;37.208;2024-03-07T09:20:46;99595.04;;;3.70;36.32
75549;BME280;64133;56.002;37.208;2024-03-07T09:25:51;99603.52;;;3.57;36.67
75549;BME280;64133;56.002;37.208;2024-03-07T09:30:56;99595.77;;;3.98;36.53
75549;BME280;64133;56.002;37.208;2024-03-07T09:36:01;99596.56;;;3.92;36.52
75549;BME280;64133;56.002;37.208;2024-03-07T09:41:06;99588.95;;;3.70;35.99
75549;BME280;64133;56.002;37.208;2024-03-07T09:46:14;99586.75;;;3.88;36.31
75549;BME280;64133;56.002;37.208;2024-03-07T09:56:38;99585.64;;;4.18;36.03
75549;BME280;64133;56.002;37.208;2024-03-07T10:01:44;99583.59;;;3.47;35.96
75549;BME280;64133;56.002;37.208;2024-03-07T10:06:50;99580.66;;;4.38;35.89
75549;BME280;64133;56.002;37.208;2024-03-07T10:11:58;99578.37;;;4.57;35.47
75549;BME280;64133;56.002;37.208;2024-03-07T10:17:03;99574.78;;;4.75;35.17
75549;BME280;64133;56.002;37.208;2024-03-07T10:22:08;99572.13;;;4.43;35.15
75549;BME280;64133;56.002;37.208;2024-03-07T10:27:13;99563.50;;;5.13;36.05
75549;BME280;64133;56.002;37.208;2024-03-07T10:32:21;99564.91;;;4.96;34.73
75549;BME280;64133;56.002;37.208;2024-03-07T10:37:26;99563.26;;;5.41;34.56
75549;BME280;64133;56.002;37.208;2024-03-07T10:42:34;99558.57;;;4.93;35.24
75549;BME280;64133;56.002;37.208;2024-03-07T10:47:39;99550.41;;;4.67;35.08
75549;BME280;64133;56.002;37.208;2024-03-07T10:52:48;99538.73;;;5.88;34.63
75549;BME280;64133;56.002;37.208;2024-03-07T10:57:54;99541.82;;;5.50;34.38
75549;BME280;64133;56.002;37.208;2024-03-07T11:03:00;99537.32;;;5.15;33.96
75549;BME280;64133;56.002;37.208;2024-03-07T11:08:06;99528.97;;;5.31;34.08
75549;BME280;64133;56.002;37.208;2024-03-07T11:13:11;99516.84;;;5.67;34.16
75549;BME280;64133;56.002;37.208;2024-03-07T11:18:16;99518.11;;;6.04;34.10
75549;BME280;64133;56.002;37.208;2024-03-07T11:23:30;99510.75;;;5.97;33.74
75549;BME280;64133;56.002;37.208;2024-03-07T11:28:33;99505.75;;;5.71;33.60
75549;BME280;64133;56.002;37.208;2024-03-07T11:33:39;99511.73;;;5.06;34.22
75549;BME280;64133;56.002;37.208;2024-03-07T11:38:48;99504.02;;;5.41;33.88
75549;BME280;64133;56.002;37.208;2024-03-07T11:43:54;99500.88;;;5.65;33.82
75549;BME280;64133;56.002;37.208;2024-03-07T11:48:59;99496.14;;;5.34;33.82
75549;BME280;64133;56.002;37.208;2024-03-07T11:54:04;99495.52;;;4.85;33.99
75549;BME280;64133;56.002;37.208;2024-03-07T11:59:10;99482.34;;;5.32;33.80
75549;BME280;64133;56.002;37.208;2024-03-07T12:04:15;99486.73;;;5.32;34.31
75549;BME280;64133;56.002;37.208;2024-03-07T12:09:20;99480.00;;;5.35;33.74
75549;BME280;64133;56.002;37.208;2024-03-07T12:14:28;99468.30;;;5.12;34.00
75549;BME280;64133;56.002;37.208;2024-03-07T12:19:34;99468.82;;;5.33;33.63
75549;BME280;64133;56.002;37.208;2024-03-07T12:24:39;99467.07;;;5.40;33.42
75549;BME280;64133;56.002;37.208;2024-03-07T12:29:45;99465.44;;;5.30;33.52
75549;BME280;64133;56.002;37.208;2024-03-07T12:34:50;99455.20;;;5.27;33.18
75549;BME280;64133;56.002;37.208;2024-03-07T12:39:55;99454.30;;;5.78;33.37
75549;BME280;64133;56.002;37.208;2024-03-07T12:45:05;99449.80;;;4.77;33.56
75549;BME280;64133;56.002;37.208;2024-03-07T12:50:10;99447.84;;;4.97;33.44
75549;BME280;64133;56.002;37.208;2024-03-07T12:55:15;99442.50;;;4.68;33.65
75549;BME280;64133;56.002;37.208;2024-03-07T13:00:23;99444.48;;;4.56;33.85
75549;BME280;64133;56.002;37.208;2024-03-07T13:05:28;99444.16;;;4.31;34.33
75549;BME280;64133;56.002;37.208;2024-03-07T13:10:33;99440.31;;;3.73;34.97
75549;BME280;64133;56.002;37.208;2024-03-07T13:15:38;99449.45;;;3.31;35.40
75549;BME280;64133;56.002;37.208;2024-03-07T13:20:43;99440.94;;;3.36;35.41
75549;BME280;64133;56.002;37.208;2024-03-07T13:25:48;99435.73;;;3.94;34.85
75549;BME280;64133;56.002;37.208;2024-03-07T13:30:53;99428.72;;;3.78;34.59
75549;BME280;64133;56.002;37.208;2024-03-07T13:35:58;99435.91;;;3.66;34.36
75549;BME280;64133;56.002;37.208;2024-03-07T13:41:03;99425.53;;;3.49;34.72
75549;BME280;64133;56.002;37.208;2024-03-07T13:46:08;99431.59;;;3.65;34.84
75549;BME280;64133;56.002;37.208;2024-03-07T13:51:13;99437.26;;;3.40;34.93
75549;BME280;64133;56.002;37.208;2024-03-07T14:02:00;99424.73;;;3.14;35.34
75549;BME280;64133;56.002;37.208;2024-03-07T14:12:53;99417.36;;;3.05;36.01
75549;BME280;64133;56.002;37.208;2024-03-07T14:24:16;99419.67;;;3.02;36.22
75549;BME280;64133;56.002;37.208;2024-03-07T14:29:26;99435.31;;;2.30;37.02
75549;BME280;64133;56.002;37.208;2024-03-07T14:34:36;99427.31;;;1.78;37.76
75549;BME280;64133;56.002;37.208;2024-03-07T14:39:39;99423.00;;;1.68;38.44
75549;BME280;64133;56.002;37.208;2024-03-07T14:44:45;99422.11;;;1.88;38.21
75549;BME280;64133;56.002;37.208;2024-03-07T14:49:50;99421.56;;;2.09;38.29
75549;BME280;64133;56.002;37.208;2024-03-07T14:54:56;99414.14;;;2.01;38.48
75549;BME280;64133;56.002;37.208;2024-03-07T15:00:01;99412.98;;;1.79;39.11
75549;BME280;64133;56.002;37.208;2024-03-07T15:05:07;99412.65;;;1.95;38.43
75549;BME280;64133;56.002;37.208;2024-03-07T15:10:16;99401.47;;;2.31;38.67
75549;BME280;64133;56.002;37.208;2024-03-07T15:15:22;99402.47;;;1.91;38.48
75549;BME280;64133;56.002;37.208;2024-03-07T15:20:28;99412.59;;;0.67;41.34
75549;BME280;64133;56.002;37.208;2024-03-07T15:25:33;99418.71;;;0.22;43.05
75549;BME280;64133;56.002;37.208;2024-03-07T15:30:38;99422.43;;;0.15;44.33
75549;BME280;64133;56.002;37.208;2024-03-07T15:35:43;99430.10;;;-0.05;46.06
75549;BME280;64133;56.002;37.208;2024-03-07T15:40:48;99420.16;;;-0.16;46.54
75549;BME280;64133;56.002;37.208;2024-03-07T15:45:53;99424.66;;;-0.33;47.37
75549;BME280;64133;56.002;37.208;2024-03-07T15:50:58;99411.49;;;-0.50;48.87
75549;BME280;64133;56.002;37.208;2024-03-07T15:56:04;99415.54;;;-0.55;49.03
75549;BME280;64133;56.002;37.208;2024-03-07T16:01:10;99409.73;;;-0.61;50.32
75549;BME280;64133;56.002;37.208;2024-03-07T16:06:15;99418.55;;;-0.67;50.75
75549;BME280;64133;56.002;37.208;2024-03-07T16:11:21;99422.02;;;-0.91;51.63
75549;BME280;64133;56.002;37.208;2024-03-07T16:16:26;99414.55;;;-1.01;51.87
75549;BME280;64133;56.002;37.208;2024-03-07T16:21:31;99421.97;;;-1.03;52.09
75549;BME280;64133;56.002;37.208;2024-03-07T16:26:36;99385.55;;;-1.22;52.51
75549;BME280;64133;56.002;37.208;2024-03-07T16:31:41;99420.64;;;-1.28;53.00
75549;BME280;64133;56.002;37.208;2024-03-07T16:36:49;99411.75;;;-1.33;53.57
75549;BME280;64133;56.002;37.208;2024-03-07T16:41:53;99410.30;;;-1.15;53.74
75549;BME280;64133;56.002;37.208;2024-03-07T16:47:01;99413.95;;;-1.47;54.33
75549;BME280;64133;56.002;37.208;2024-03-07T16:52:09;99423.77;;;-1.58;54.85
75549;BME280;64133;56.002;37.208;2024-03-07T16:57:12;99423.17;;;-1.40;55.09
75549;BME280;64133;56.002;37.208;2024-03-07T17:02:17;99421.84;;;-1.65;55.53
75549;BME280;64133;56.002;37.208;2024-03-07T17:07:22;99417.52;;;-1.79;56.04
75549;BME280;64133;56.002;37.208;2024-03-07T17:12:27;99418.11;;;-1.69;56.34
75549;BME280;64133;56.002;37.208;2024-03-07T17:17:32;99418.89;;;-1.67;56.62
75549;BME280;64133;56.002;37.208;2024-03-07T17:27:55;99406.92;;;-1.98;57.59
75549;BME280;64133;56.002;37.208;2024-03-07T17:33:00;99417.87;;;-1.90;57.26
75549;BME280;64133;56.002;37.208;2024-03-07T17:38:05;99414.87;;;-2.04;57.38
75549;BME280;64133;56.002;37.208;2024-03-07T17:43:10;99411.12;;;-2.23;58.04
75549;BME280;64133;56.002;37.208;2024-03-07T17:48:15;99411.09;;;-2.22;58.38
75549;BME280;64133;56.002;37.208;2024-03-07T17:53:20;99406.05;;;-2.27;58.48
75549;BME280;64133;56.002;37.208;2024-03-07T17:58:25;99404.49;;;-2.32;58.80
75549;BME280;64133;56.002;37.208;2024-03-07T18:03:30;99410.29;;;-2.39;59.50
75549;BME280;64133;56.002;37.208;2024-03-07T18:08:35;99398.50;;;-2.47;59.93
75549;BME280;64133;56.002;37.208;2024-03-07T18:13:41;99403.55;;;-2.59;60.30
75549;BME280;64133;56.002;37.208;2024-03-07T18:18:46;99394.86;;;-2.71;60.79
75549;BME280;64133;56.002;37.208;2024-03-07T18:23:51;99398.61;;;-2.83;61.06
75549;BME280;64133;56.002;37.208;2024-03-07T18:28:56;99394.70;;;-2.65;61.11
75549;BME280;64133;56.002;37.208;2024-03-07T18:34:01;99389.13;;;-2.66;60.91
75549;BME280;64133;56.002;37.208;2024-03-07T18:39:06;99376.03;;;-2.90;61.64
75549;BME280;64133;56.002;37.208;2024-03-07T18:44:15;99364.37;;;-2.87;61.83
75549;BME280;64133;56.002;37.208;2024-03-07T18:49:20;99377.00;;;-2.94;61.73
75549;BME280;64133;56.002;37.208;2024-03-07T18:54:25;99360.95;;;-3.04;62.14
75549;BME280;64133;56.002;37.208;2024-03-07T18:59:30;99349.56;;;-2.80;61.45
75549;BME280;64133;56.002;37.208;2024-03-07T19:04:35;99341.48;;;-2.68;61.23
75549;BME280;64133;56.002;37.208;2024-03-07T19:09:40;99329.25;;;-2.91;61.30
75549;BME280;64133;56.002;37.208;2024-03-07T19:14:45;99321.52;;;-2.91;61.40
75549;BME280;64133;56.002;37.208;2024-03-07T19:19:50;99325.31;;;-2.73;61.27
75549;BME280;64133;56.002;37.208;2024-03-07T19:24:55;99322.28;;;-2.72;61.11
75549;BME280;64133;56.002;37.208;2024-03-07T19:30:00;99317.92;;;-3.00;61.60
75549;BME280;64133;56.002;37.208;2024-03-07T19:35:07;99308.03;;;-3.00;61.61
75549;BME280;64133;56.002;37.208;2024-03-07T19:40:13;99308.11;;;-2.87;61.66
75549;BME280;64133;56.002;37.208;2024-03-07T19:45:19;99304.53;;;-2.98;61.63
75549;BME280;64133;56.002;37.208;2024-03-07T19:50:24;99304.72;;;-3.04;61.98
75549;BME280;64133;56.002;37.208;2024-03-07T19:55:29;99300.36;;;-3.18;62.95
75549;BME280;64133;56.002;37.208;2024-03-07T20:00:34;99299.39;;;-3.14;62.34
75549;BME280;64133;56.002;37.208;2024-03-07T20:05:39;99293.34;;;-3.28;62.65
75549;BME280;64133;56.002;37.208;2024-03-07T20:10:44;99294.10;;;-3.24;62.75
75549;BME280;64133;56.002;37.208;2024-03-07T20:15:49;99289.33;;;-3.38;63.65
75549;BME280;64133;56.002;37.208;2024-03-07T20:20:54;99288.70;;;-3.32;62.92
75549;BME280;64133;56.002;37.208;2024-03-07T20:25:59;99283.87;;;-3.27;62.82
75549;BME280;64133;56.002;37.208;2024-03-07T20:31:04;99271.58;;;-3.18;62.93
75549;BME280;64133;56.002;37.208;2024-03-07T20:36:10;99270.98;;;-3.26;63.17
75549;BME280;64133;56.002;37.208;2024-03-07T20:41:15;99264.41;;;-3.21;63.11
75549;BME280;64133;56.002;37.208;2024-03-07T20:46:20;99264.42;;;-3.38;63.45
75549;BME280;64133;56.002;37.208;2024-03-07T20:51:24;99255.80;;;-3.37;63.32
75549;BME280;64133;56.002;37.208;2024-03-07T20:56:29;99257.09;;;-3.53;63.38
75549;BME280;64133;56.002;37.208;2024-03-07T21:01:33;99254.19;;;-3.57;63.75
75549;BME280;64133;56.002;37.208;2024-03-07T21:06:41;99253.20;;;-3.68;64.08
75549;BME280;64133;56.002;37.208;2024-03-07T21:11:46;99250.66;;;-3.53;63.65
75549;BME280;64133;56.002;37.208;2024-03-07T21:16:50;99250.25;;;-3.70;63.93
75549;BME280;64133;56.002;37.208;2024-03-07T21:21:57;99244.55;;;-3.82;64.31
75549;BME280;64133;56.002;37.208;2024-03-07T21:26:58;99247.27;;;-3.88;64.24
75549;BME280;64133;56.002;37.208;2024-03-07T21:32:03;99241.89;;;-3.95;64.64
75549;BME280;64133;56.002;37.208;2024-03-07T21:37:08;99236.34;;;-3.96;64.54
75549;BME280;64133;56.002;37.208;2024-03-07T21:42:12;99228.20;;;-3.97;64.24
75549;BME280;64133;56.002;37.208;2024-03-07T21:47:17;99216.53;;;-4.10;65.03
75549;BME280;64133;56.002;37.208;2024-03-07T21:52:22;99221.34;;;-4.13;65.01
75549;BME280;64133;56.002;37.208;2024-03-07T21:57:27;99215.68;;;-4.09;64.92
75549;BME280;64133;56.002;37.208;2024-03-07T22:02:30;99207.40;;;-4.04;65.00
75549;BME280;64133;56.002;37.208;2024-03-07T22:07:35;99210.01;;;-4.23;65.21
75549;BME280;64133;56.002;37.208;2024-03-07T22:12:40;99204.31;;;-4.36;65.01
75549;BME280;64133;56.002;37.208;2024-03-07T22:17:45;99199.63;;;-4.37;65.58
75549;BME280;64133;56.002;37.208;2024-03-07T22:22:49;99202.70;;;-4.40;65.40
75549;BME280;64133;56.002;37.208;2024-03-07T22:27:56;99193.02;;;-4.47;65.72
75549;BME280;64133;56.002;37.208;2024-03-07T22:33:03;99198.28;;;-4.53;66.03
75549;BME280;64133;56.002;37.208;2024-03-07T22:38:06;99194.31;;;-4.66;65.86
75549;BME280;64133;56.002;37.208;2024-03-07T22:43:09;99187.77;;;-4.60;65.77
75549;BME280;64133;56.002;37.208;2024-03-07T22:48:14;99181.41;;;-4.63;65.82
75549;BME280;64133;56.002;37.208;2024-03-07T22:53:18;99185.42;;;-4.69;65.77
75549;BME280;64133;56.002;37.208;2024-03-07T22:58:22;99180.61;;;-4.65;65.93
75549;BME280;64133;56.002;37.208;2024-03-07T23:03:27;99184.52;;;-4.88;65.84
75549;BME280;64133;56.002;37.208;2024-03-07T23:08:33;99186.91;;;-4.78;65.68
75549;BME280;64133;56.002;37.208;2024-03-07T23:13:38;99178.83;;;-4.81;65.91
75549;BME280;64133;56.002;37.208;2024-03-07T23:18:43;99174.68;;;-4.87;65.93
75549;BME280;64133;56.002;37.208;2024-03-07T23:23:48;99166.08;;;-5.05;65.96
75549;BME280;64133;56.002;37.208;2024-03-07T23:28:53;99154.21;;;-5.09;66.18
75549;BME280;64133;56.002;37.208;2024-03-07T23:33:58;99148.73;;;-5.13;66.29
75549;BME280;64133;56.002;37.208;2024-03-07T23:39:05;99145.89;;;-5.20;66.53
75549;BME280;64133;56.002;37.208;2024-03-07T23:44:10;99131.73;;;-5.38;66.66
75549;BME280;64133;56.002;37.208;2024-03-07T23:49:15;99135.09;;;-5.36;66.84
75549;BME280;64133;56.002;37.208;2024-03-07T23:54:20;99131.83;;;-5.43;67.19
75549;BME280;64133;56.002;37.208;2024-03-07T23:59:25;99125.95;;;-5.28;66.86
